createdAt,value
2018-08-30T00:01:10.378Z,7.90
2018-08-30T00:03:38.765Z,7.47
2018-08-30T00:06:07.183Z,7.80
2018-08-30T00:08:35.581Z,8.10
2018-08-30T00:11:04.047Z,8.67
2018-08-30T00:13:32.424Z,8.57
2018-08-30T00:16:00.773Z,9.10
2018-08-30T00:18:29.212Z,7.80
2018-08-30T00:20:57.612Z,9.03
2018-08-30T00:23:25.926Z,7.37
2018-08-30T00:25:54.316Z,8.67
2018-08-30T00:28:22.676Z,8.93
2018-08-30T00:30:51.050Z,8.30
2018-08-30T00:33:19.527Z,9.03
2018-08-30T00:35:47.842Z,8.60
2018-08-30T00:38:16.177Z,8.83
2018-08-30T00:41:15.232Z,9.40
2018-08-30T00:43:43.568Z,9.63
2018-08-30T00:46:11.899Z,8.13
2018-08-30T00:48:40.256Z,9.27
2018-08-30T00:51:08.626Z,8.93
2018-08-30T00:53:36.977Z,9.90
2018-08-30T00:56:05.313Z,9.80
2018-08-30T00:58:33.611Z,9.40
2018-08-30T01:01:02.189Z,9.80
2018-08-30T01:03:30.587Z,8.83
2018-08-30T01:05:58.979Z,10.63
2018-08-30T01:08:27.476Z,9.97
2018-08-30T01:10:55.871Z,9.67
2018-08-30T01:13:24.520Z,10.73
2018-08-30T01:15:52.946Z,11.27
2018-08-30T01:18:21.430Z,11.67
2018-08-30T01:20:49.853Z,13.27
2018-08-30T01:23:18.299Z,13.27
2018-08-30T01:25:46.703Z,15.73
2018-08-30T01:28:15.061Z,16.70
2018-08-30T01:30:43.500Z,18.47
2018-08-30T01:33:11.940Z,19.43
2018-08-30T01:35:40.284Z,20.33
2018-08-30T01:38:08.639Z,21.90
2018-08-30T01:40:37.056Z,23.60
2018-08-30T01:43:05.708Z,24.00
2018-08-30T01:45:34.075Z,26.50
2018-08-30T01:48:02.423Z,28.10
2018-08-30T01:50:30.983Z,31.50
2018-08-30T01:52:59.363Z,33.00
2018-08-30T01:55:27.800Z,34.00
2018-08-30T01:57:56.156Z,36.10
2018-08-30T02:00:24.501Z,36.37
2018-08-30T02:02:52.834Z,38.13
2018-08-30T02:05:21.132Z,37.60
2018-08-30T02:07:49.568Z,39.03
2018-08-30T02:10:17.870Z,41.17
2018-08-30T02:12:46.347Z,40.23
2018-08-30T02:15:14.676Z,41.30
2018-08-30T02:17:43.099Z,39.70
2018-08-30T02:20:11.474Z,41.37
2018-08-30T02:22:39.866Z,41.07
2018-08-30T02:25:08.269Z,41.63
2018-08-30T02:27:36.657Z,40.90
2018-08-30T02:30:05.148Z,42.90
2018-08-30T02:32:33.477Z,42.30
2018-08-30T02:35:02.115Z,42.73
2018-08-30T02:37:30.465Z,41.77
2018-08-30T02:39:58.805Z,39.73
2018-08-30T02:42:27.182Z,40.07
2018-08-30T02:44:55.507Z,38.20
2018-08-30T02:47:23.849Z,39.90
2018-08-30T02:49:52.223Z,40.23
2018-08-30T02:52:20.593Z,40.80
2018-08-30T02:54:49.133Z,38.97
2018-08-30T02:57:17.529Z,39.17
2018-08-30T03:02:44.928Z,39.27
2018-08-30T03:05:13.304Z,40.37
2018-08-30T03:07:41.682Z,40.93
2018-08-30T03:10:10.144Z,42.13
2018-08-30T03:12:38.550Z,40.20
2018-08-30T03:15:14.320Z,40.70
2018-08-30T03:17:43.022Z,40.70
2018-08-30T03:20:12.832Z,37.43
2018-08-30T03:22:41.975Z,38.50
2018-08-30T03:25:10.493Z,37.17
2018-08-30T03:27:38.921Z,36.83
2018-08-30T03:30:08.188Z,36.33
2018-08-30T03:32:36.742Z,37.33
2018-08-30T03:35:05.140Z,38.10
2018-08-30T03:37:33.712Z,38.70
2018-08-30T03:40:02.115Z,41.80
2018-08-30T03:42:30.456Z,44.70
2018-08-30T03:44:59.371Z,44.93
2018-08-30T03:47:27.721Z,46.57
2018-08-30T03:49:56.293Z,45.50
2018-08-30T03:52:24.657Z,46.27
2018-08-30T03:54:52.991Z,45.77
2018-08-30T03:57:21.336Z,46.53
2018-08-30T03:59:49.654Z,48.30
2018-08-30T04:02:18.075Z,46.60
2018-08-30T04:04:46.516Z,48.17
2018-08-30T04:07:14.878Z,47.03
2018-08-30T04:09:43.693Z,46.43
2018-08-30T04:12:11.990Z,46.77
2018-08-30T04:14:40.610Z,45.27
2018-08-30T04:17:09.345Z,45.90
2018-08-30T04:19:37.703Z,46.10
2018-08-30T04:22:07.027Z,39.50
2018-08-30T04:24:35.441Z,38.67
2018-08-30T04:27:03.878Z,39.03
2018-08-30T04:29:32.409Z,38.60
2018-08-30T04:32:00.798Z,34.53
2018-08-30T04:34:29.168Z,34.07
2018-08-30T04:36:57.951Z,32.60
2018-08-30T04:39:26.335Z,33.20
2018-08-30T04:41:54.932Z,32.80
2018-08-30T04:44:23.348Z,33.87
2018-08-30T04:46:52.781Z,33.47
2018-08-30T04:49:22.065Z,33.10
2018-08-30T04:51:50.443Z,31.63
2018-08-30T04:54:18.852Z,31.10
2018-08-30T04:56:47.226Z,29.63
2018-08-30T04:59:15.580Z,29.23
2018-08-30T05:01:43.958Z,28.47
2018-08-30T05:04:12.551Z,28.60
2018-08-30T05:06:40.955Z,28.70
2018-08-30T05:09:11.144Z,26.67
2018-08-30T05:11:39.552Z,27.70
2018-08-30T05:14:10.004Z,28.30
2018-08-30T05:16:38.972Z,27.83
2018-08-30T05:19:07.679Z,28.13
2018-08-30T05:21:36.579Z,28.20
2018-08-30T05:24:05.611Z,29.23
2018-08-30T05:26:34.023Z,28.40
2018-08-30T05:29:02.737Z,26.70
2018-08-30T05:31:31.514Z,25.87
2018-08-30T05:34:00.271Z,26.27
2018-08-30T05:36:28.845Z,25.90
2018-08-30T05:38:57.425Z,26.33
2018-08-30T05:41:25.889Z,26.30
2018-08-30T05:43:54.619Z,25.70
2018-08-30T05:46:23.336Z,28.07
2018-08-30T05:48:51.696Z,26.83
2018-08-30T05:51:20.269Z,28.40
2018-08-30T05:53:48.728Z,29.27
2018-08-30T05:56:17.459Z,27.93
2018-08-30T05:58:45.881Z,28.87
2018-08-30T06:01:14.358Z,29.50
2018-08-30T06:03:42.850Z,29.23
2018-08-30T06:06:11.213Z,28.23
2018-08-30T06:08:39.874Z,28.43
2018-08-30T06:11:08.264Z,28.53
2018-08-30T06:13:36.904Z,28.90
2018-08-30T06:16:06.020Z,28.40
2018-08-30T06:18:34.479Z,24.70
2018-08-30T06:21:02.828Z,25.80
2018-08-30T06:23:31.336Z,26.70
2018-08-30T06:26:00.358Z,25.30
2018-08-30T06:28:29.078Z,25.00
2018-08-30T06:30:58.172Z,24.83
2018-08-30T06:33:26.494Z,24.47
2018-08-30T06:35:54.891Z,24.93
2018-08-30T06:38:23.340Z,25.30
2018-08-30T06:40:52.102Z,25.13
2018-08-30T06:43:21.019Z,25.93
2018-08-30T06:45:49.625Z,24.57
2018-08-30T06:48:18.501Z,24.50
2018-08-30T06:50:46.998Z,25.40
2018-08-30T06:53:15.687Z,23.40
2018-08-30T06:55:44.255Z,24.83
2018-08-30T06:58:12.951Z,25.20
2018-08-30T07:00:41.317Z,24.43
2018-08-30T07:03:09.820Z,24.10
2018-08-30T07:05:38.217Z,23.80
2018-08-30T07:08:06.761Z,26.07
2018-08-30T07:10:35.087Z,27.53
2018-08-30T07:13:03.525Z,27.23
2018-08-30T07:15:32.781Z,27.87
2018-08-30T07:18:01.293Z,27.30
2018-08-30T07:20:29.656Z,25.93
2018-08-30T07:22:58.465Z,25.43
2018-08-30T07:25:26.808Z,28.20
2018-08-30T07:27:55.260Z,26.67
2018-08-30T07:30:23.688Z,24.67
2018-08-30T07:32:52.187Z,25.67
2018-08-30T07:35:20.631Z,25.37
2018-08-30T07:37:49.507Z,24.90
2018-08-30T07:40:18.116Z,24.23
2018-08-30T07:42:46.734Z,24.60
2018-08-30T07:45:15.415Z,25.03
2018-08-30T07:47:43.989Z,23.07
2018-08-30T07:50:12.645Z,25.30
2018-08-30T07:52:41.120Z,20.87
2018-08-30T07:55:10.011Z,20.57
2018-08-30T07:57:38.717Z,19.37
2018-08-30T08:00:07.791Z,23.07
2018-08-30T08:02:36.319Z,23.77
2018-08-30T08:05:04.749Z,23.83
2018-08-30T08:07:33.609Z,25.87
2018-08-30T08:10:02.027Z,27.07
2018-08-30T08:12:31.144Z,28.90
2018-08-30T08:15:00.083Z,29.47
2018-08-30T08:17:29.039Z,32.77
2018-08-30T08:19:57.735Z,34.40
2018-08-30T08:22:26.503Z,31.90
2018-08-30T08:24:56.638Z,33.27
2018-08-30T08:27:25.396Z,32.83
2018-08-30T08:29:54.509Z,33.03
2018-08-30T08:32:22.911Z,33.70
2018-08-30T08:34:51.627Z,31.20
2018-08-30T08:37:20.081Z,31.53
2018-08-30T08:39:49.484Z,31.40
2018-08-30T08:42:17.928Z,32.87
2018-08-30T08:44:46.720Z,31.63
2018-08-30T08:47:15.384Z,31.80
2018-08-30T08:49:43.831Z,29.93
2018-08-30T08:52:12.682Z,29.83
2018-08-30T08:54:41.035Z,29.90
2018-08-30T08:57:09.805Z,32.37
2018-08-30T08:59:38.462Z,31.33
2018-08-30T09:02:06.795Z,31.83
2018-08-30T09:04:35.430Z,31.87
2018-08-30T09:07:04.152Z,32.70
2018-08-30T09:09:32.539Z,33.80
2018-08-30T09:12:00.927Z,31.47
2018-08-30T09:14:29.591Z,32.93
2018-08-30T09:16:58.344Z,31.70
2018-08-30T09:19:27.118Z,32.53
2018-08-30T09:21:55.737Z,30.67
2018-08-30T09:24:24.172Z,32.30
2018-08-30T09:26:53.069Z,30.87
2018-08-30T09:29:21.851Z,30.67
2018-08-30T09:31:50.220Z,30.10
2018-08-30T09:34:19.351Z,29.70
2018-08-30T09:36:47.957Z,28.90
2018-08-30T09:39:17.303Z,29.33
2018-08-30T09:41:45.986Z,29.10
2018-08-30T09:44:14.644Z,28.50
2018-08-30T09:46:43.683Z,29.00
2018-08-30T09:49:12.226Z,30.03
2018-08-30T09:51:40.678Z,29.50
2018-08-30T09:54:09.081Z,28.73
2018-08-30T09:56:37.818Z,27.83
2018-08-30T09:59:06.420Z,27.70
2018-08-30T10:01:40.328Z,29.10
2018-08-30T10:04:09.388Z,27.03
2018-08-30T10:06:38.055Z,26.80
2018-08-30T10:09:09.099Z,26.27
2018-08-30T10:11:37.599Z,25.47
2018-08-30T10:14:06.353Z,24.47
2018-08-30T10:16:35.238Z,23.60
2018-08-30T10:19:03.879Z,22.57
2018-08-30T10:21:32.841Z,22.13
2018-08-30T10:24:01.531Z,20.93
2018-08-30T10:26:31.353Z,20.93
2018-08-30T10:29:00.132Z,20.57
2018-08-30T10:31:28.920Z,20.10
2018-08-30T10:33:57.574Z,19.97
2018-08-30T10:36:25.937Z,19.50
2018-08-30T10:38:55.062Z,20.40
2018-08-30T10:41:23.685Z,19.60
2018-08-30T10:43:52.657Z,18.77
2018-08-30T10:46:22.318Z,19.10
2018-08-30T10:48:51.530Z,18.33
2018-08-30T10:51:20.335Z,16.63
2018-08-30T10:53:48.996Z,16.90
2018-08-30T10:56:18.012Z,16.93
2018-08-30T10:58:46.699Z,17.13
2018-08-30T11:01:15.693Z,15.77
2018-08-30T11:03:44.477Z,16.77
2018-08-30T11:06:12.925Z,16.07
2018-08-30T11:08:41.263Z,15.93
2018-08-30T11:11:09.901Z,15.17
2018-08-30T11:13:38.371Z,14.70
2018-08-30T11:16:06.944Z,15.70
2018-08-30T11:18:35.481Z,15.73
2018-08-30T11:21:04.312Z,15.70
2018-08-30T11:23:32.948Z,16.10
2018-08-30T11:26:01.821Z,15.17
2018-08-30T11:28:30.373Z,15.47
2018-08-30T11:30:58.713Z,15.07
2018-08-30T11:33:27.330Z,16.27
2018-08-30T11:35:55.667Z,14.50
2018-08-30T11:38:24.354Z,13.93
2018-08-30T11:40:52.938Z,14.00
2018-08-30T11:43:21.448Z,12.63
2018-08-30T11:45:49.837Z,12.50
2018-08-30T11:48:18.358Z,12.57
2018-08-30T11:50:46.767Z,11.47
2018-08-30T11:53:15.152Z,11.47
2018-08-30T11:55:43.689Z,11.30
2018-08-30T11:58:12.172Z,12.57
2018-08-30T12:00:40.777Z,11.97
2018-08-30T12:03:09.344Z,11.47
2018-08-30T12:05:38.034Z,12.50
2018-08-30T12:08:07.942Z,12.87
2018-08-30T12:10:39.113Z,13.13
2018-08-30T12:13:07.885Z,13.20
2018-08-30T12:15:36.678Z,12.43
2018-08-30T12:18:05.712Z,11.93
2018-08-30T12:20:35.058Z,12.03
2018-08-30T12:23:04.668Z,12.27
2018-08-30T12:25:34.061Z,13.73
2018-08-30T12:28:02.566Z,13.27
2018-08-30T12:30:31.333Z,13.87
2018-08-30T12:33:00.148Z,15.77
2018-08-30T12:35:29.476Z,15.77
2018-08-30T12:37:59.630Z,16.73
2018-08-30T12:40:30.166Z,17.47
2018-08-30T12:42:59.544Z,17.67
2018-08-30T12:45:28.434Z,17.03
2018-08-30T12:47:59.021Z,19.13
2018-08-30T12:50:29.037Z,18.63
2018-08-30T12:52:58.423Z,18.70
2018-08-30T12:55:27.851Z,16.60
2018-08-30T12:57:58.277Z,14.67
2018-08-30T13:00:28.120Z,12.90
2018-08-30T13:02:57.810Z,13.17
2018-08-30T13:05:28.005Z,12.80
2018-08-30T13:07:58.264Z,14.50
2018-08-30T13:10:27.802Z,14.13
2018-08-30T13:12:56.291Z,14.60
2018-08-30T13:15:26.225Z,14.20
2018-08-30T13:17:56.596Z,14.80
2018-08-30T13:20:26.163Z,15.10
2018-08-30T13:22:55.432Z,15.63
2018-08-30T13:25:24.935Z,15.77
2018-08-30T13:27:54.363Z,14.93
2018-08-30T13:30:25.181Z,15.97
2018-08-30T13:32:54.675Z,15.93
2018-08-30T13:35:24.307Z,14.63
2018-08-30T13:37:53.678Z,14.50
2018-08-30T13:40:22.870Z,15.33
2018-08-30T13:42:51.690Z,15.43
2018-08-30T13:45:21.523Z,15.20
2018-08-30T13:47:50.760Z,14.97
2018-08-30T13:50:20.483Z,14.43
2018-08-30T13:52:49.066Z,14.57
2018-08-30T13:55:19.050Z,14.57
2018-08-30T13:57:49.346Z,14.17
2018-08-30T14:00:19.733Z,13.17
2018-08-30T14:02:49.221Z,13.87
2018-08-30T14:05:19.066Z,13.20
2018-08-30T14:07:49.472Z,14.53
2018-08-30T14:10:20.117Z,14.33
2018-08-30T14:12:49.731Z,15.00
2018-08-30T14:15:19.322Z,14.70
2018-08-30T14:17:48.620Z,15.83
2018-08-30T14:20:18.145Z,14.87
2018-08-30T14:22:47.977Z,14.30
2018-08-30T14:25:17.787Z,15.50
2018-08-30T14:27:47.385Z,14.77
2018-08-30T14:30:16.734Z,16.23
2018-08-30T14:32:48.122Z,13.60
2018-08-30T14:35:17.507Z,14.97
2018-08-30T14:37:46.927Z,14.40
2018-08-30T14:40:16.433Z,12.57
2018-08-30T14:42:45.930Z,13.30
2018-08-30T14:45:15.852Z,11.50
2018-08-30T14:47:46.329Z,10.23
2018-08-30T14:50:15.408Z,8.97
2018-08-30T14:52:44.787Z,8.70
2018-08-30T14:55:14.067Z,8.53
2018-08-30T14:57:43.451Z,8.60
2018-08-30T15:00:13.474Z,9.10
2018-08-30T15:02:43.772Z,9.70
2018-08-30T15:05:13.239Z,10.17
2018-08-30T15:07:42.882Z,10.47
2018-08-30T15:10:12.686Z,11.80
2018-08-30T15:12:41.642Z,12.03
2018-08-30T15:15:11.601Z,11.53
2018-08-30T15:17:41.642Z,12.30
2018-08-30T15:20:11.243Z,11.00
2018-08-30T15:22:41.826Z,10.43
2018-08-30T15:25:12.002Z,9.47
2018-08-30T15:27:41.392Z,9.43
2018-08-30T15:30:11.096Z,8.67
2018-08-30T15:32:40.410Z,7.83
2018-08-30T15:35:09.642Z,7.77
2018-08-30T15:37:39.286Z,7.50
2018-08-30T15:40:08.808Z,7.60
2018-08-30T15:42:39.580Z,7.60
2018-08-30T15:45:10.110Z,7.70
2018-08-30T15:47:39.806Z,6.67
2018-08-30T15:50:09.546Z,7.10
2018-08-30T15:52:39.366Z,6.20
2018-08-30T15:55:09.478Z,6.80
2018-08-30T15:57:38.987Z,7.27
2018-08-30T16:00:08.609Z,6.70
2018-08-30T16:02:38.210Z,7.07
2018-08-30T16:05:08.238Z,7.60
2018-08-30T16:07:37.082Z,7.63
2018-08-30T16:10:07.839Z,8.07
2018-08-30T16:12:37.956Z,8.10
2018-08-30T16:15:07.271Z,8.57
2018-08-30T16:17:37.145Z,7.87
2018-08-30T16:20:07.321Z,8.37
2018-08-30T16:22:46.726Z,8.50
2018-08-30T16:25:16.671Z,8.53
2018-08-30T16:27:47.242Z,9.03
2018-08-30T16:30:16.843Z,10.27
2018-08-30T16:32:46.822Z,8.50
2018-08-30T16:35:16.421Z,8.70
2018-08-30T16:37:45.933Z,7.80
2018-08-30T16:40:15.583Z,7.77
2018-08-30T16:42:45.791Z,8.20
2018-08-30T16:45:15.093Z,8.07
2018-08-30T16:47:44.692Z,8.00
2018-08-30T16:50:14.933Z,7.83
2018-08-30T16:52:45.385Z,7.67
2018-08-30T16:55:14.677Z,7.70
2018-08-30T16:57:44.312Z,7.90
2018-08-30T17:00:13.944Z,8.73
2018-08-30T17:02:44.080Z,7.47
2018-08-30T17:05:14.199Z,9.17
2018-08-30T17:07:43.582Z,8.03
2018-08-30T17:10:13.500Z,7.53
2018-08-30T17:15:14.422Z,6.63
2018-08-30T17:17:44.269Z,5.87
2018-08-30T17:20:49.468Z,5.60
2018-08-30T17:23:20.020Z,5.83
2018-08-30T17:25:48.778Z,6.23
2018-08-30T17:28:17.194Z,6.10
2018-08-30T17:30:45.663Z,5.87
2018-08-30T17:33:14.077Z,6.47
2018-08-30T17:35:42.484Z,6.67
2018-08-30T17:38:10.916Z,7.03
2018-08-30T17:40:39.319Z,7.07
2018-08-30T17:43:07.719Z,5.83
2018-08-30T17:45:37.070Z,6.37
2018-08-30T17:48:05.747Z,7.00
2018-08-30T17:50:34.240Z,5.87
2018-08-30T17:53:02.496Z,6.10
2018-08-30T17:55:32.409Z,6.77
2018-08-30T17:58:02.633Z,6.20
2018-08-30T18:00:32.953Z,6.07
2018-08-30T18:03:02.736Z,5.87
2018-08-30T18:05:32.764Z,6.30
2018-08-30T18:08:02.195Z,6.00
2018-08-30T18:10:31.580Z,5.93
2018-08-30T18:13:01.378Z,6.50
2018-08-30T18:15:31.114Z,5.70
2018-08-30T18:18:00.812Z,5.83
2018-08-30T18:20:31.830Z,5.57
2018-08-30T18:23:01.548Z,6.10
2018-08-30T18:25:30.021Z,6.83
2018-08-30T18:27:59.396Z,6.67
2018-08-30T18:30:28.891Z,5.87
2018-08-30T18:32:58.440Z,5.87
2018-08-30T18:35:28.856Z,5.30
2018-08-30T18:37:58.563Z,5.80
2018-08-30T18:40:29.137Z,5.27
2018-08-30T18:42:58.717Z,5.63
2018-08-30T18:45:28.208Z,5.90
2018-08-30T18:47:58.843Z,6.17
2018-08-30T18:50:29.374Z,5.77
2018-08-30T18:52:58.973Z,5.53
2018-08-30T18:55:29.012Z,5.47
2018-08-30T18:57:59.122Z,5.80
2018-08-30T19:00:28.588Z,4.83
2018-08-30T19:03:00.570Z,4.80
2018-08-30T19:05:29.810Z,5.87
2018-08-30T19:07:59.931Z,4.30
2018-08-30T19:10:29.930Z,4.83
2018-08-30T19:13:00.774Z,4.73
2018-08-30T19:15:36.302Z,5.00
2018-08-30T19:18:11.353Z,4.10
2018-08-30T19:20:41.633Z,4.40
2018-08-30T19:23:10.693Z,4.47
2018-08-30T19:25:40.639Z,3.63
2018-08-30T19:28:10.510Z,3.73
2018-08-30T19:30:40.089Z,3.93
2018-08-30T19:33:09.883Z,4.33
2018-08-30T19:35:44.354Z,3.90
2018-08-30T19:38:13.448Z,3.90
2018-08-30T19:40:48.420Z,4.20
2018-08-30T19:43:17.305Z,3.60
2018-08-30T19:45:47.509Z,3.67
2018-08-30T19:50:47.294Z,3.37
2018-08-30T19:53:16.842Z,3.67
2018-08-30T19:55:45.954Z,3.40
2018-08-30T19:58:15.165Z,3.37
2018-08-30T20:00:44.323Z,3.27
2018-08-30T20:03:13.953Z,3.27
2018-08-30T20:05:43.237Z,4.30
2018-08-30T20:08:12.475Z,3.40
2018-08-30T20:10:41.490Z,3.30
2018-08-30T20:13:11.035Z,3.03
2018-08-30T20:15:40.236Z,3.80
2018-08-30T20:18:09.572Z,4.03
2018-08-30T20:20:38.842Z,2.73
2018-08-30T20:23:08.239Z,3.30
2018-08-30T20:25:37.522Z,2.43
2018-08-30T20:28:06.541Z,2.93
2018-08-30T20:30:36.422Z,3.37
2018-08-30T20:33:05.949Z,3.30
2018-08-30T20:36:05.454Z,3.50
2018-08-30T20:38:34.644Z,3.10
2018-08-30T20:41:04.053Z,2.80
2018-08-30T20:43:33.470Z,2.87
2018-08-30T20:46:02.927Z,2.97
2018-08-30T20:48:32.271Z,3.20
2018-08-30T20:51:01.307Z,3.37
2018-08-30T20:53:30.370Z,3.10
2018-08-30T20:55:59.605Z,2.90
2018-08-30T20:58:28.897Z,3.10
2018-08-30T21:00:58.647Z,2.87
2018-08-30T21:03:27.766Z,3.23
2018-08-30T21:05:56.219Z,3.03
2018-08-30T21:08:24.616Z,2.97
2018-08-30T21:10:53.070Z,3.33
2018-08-30T21:13:21.474Z,2.60
2018-08-30T21:15:49.802Z,3.20
2018-08-30T21:18:18.284Z,2.97
2018-08-30T21:20:46.678Z,3.13
2018-08-30T21:23:15.012Z,3.33
2018-08-30T21:25:43.473Z,3.27
2018-08-30T21:28:11.859Z,2.30
2018-08-30T21:30:40.178Z,3.23
2018-08-30T21:33:08.847Z,3.40
2018-08-30T21:35:37.164Z,3.07
2018-08-30T21:38:05.560Z,2.97
2018-08-30T21:40:33.878Z,3.07
2018-08-30T21:43:02.239Z,3.23
2018-08-30T21:45:30.918Z,2.50
2018-08-30T21:47:59.260Z,2.23
2018-08-30T21:50:27.630Z,2.83
2018-08-30T21:52:56.030Z,2.73
2018-08-30T21:55:24.382Z,2.97
2018-08-30T21:57:52.736Z,2.40
2018-08-30T22:00:21.185Z,2.47
2018-08-30T22:02:49.635Z,2.87
2018-08-30T22:05:18.039Z,2.73
2018-08-30T22:07:46.407Z,2.33
2018-08-30T22:10:14.895Z,2.97
2018-08-30T22:12:43.366Z,2.47
2018-08-30T22:15:11.772Z,2.77
2018-08-30T22:17:40.202Z,3.07
2018-08-30T22:20:08.594Z,2.67
2018-08-30T22:22:36.920Z,2.33
2018-08-30T22:25:06.145Z,3.20
2018-08-30T22:27:34.671Z,2.33
2018-08-30T22:30:03.636Z,3.10
2018-08-30T22:32:31.962Z,2.77
2018-08-30T22:35:00.377Z,2.50
2018-08-30T22:37:28.748Z,2.77
2018-08-30T22:39:57.179Z,2.47
2018-08-30T22:42:25.500Z,2.93
2018-08-30T22:44:53.863Z,3.17
2018-08-30T22:47:22.209Z,2.73
2018-08-30T22:49:50.601Z,2.33
2018-08-30T22:52:19.157Z,3.03
2018-08-30T22:54:47.545Z,3.07
2018-08-30T22:57:15.940Z,3.57
2018-08-30T22:59:44.654Z,3.50
2018-08-30T23:02:13.102Z,2.90
2018-08-30T23:04:41.410Z,3.27
2018-08-30T23:07:09.821Z,3.03
2018-08-30T23:09:38.237Z,2.73
2018-08-30T23:12:07.283Z,2.67
2018-08-30T23:14:36.085Z,3.60
2018-08-30T23:17:04.485Z,2.60
2018-08-30T23:19:33.400Z,3.13
2018-08-30T23:22:01.861Z,2.73
2018-08-30T23:24:30.240Z,2.97
2018-08-30T23:26:58.619Z,3.17
2018-08-30T23:29:27.024Z,2.90
2018-08-30T23:31:55.482Z,3.47
2018-08-30T23:34:23.882Z,2.67
2018-08-30T23:36:52.298Z,3.80
2018-08-30T23:39:20.668Z,2.90
2018-08-30T23:41:49.024Z,3.10
2018-08-30T23:44:17.483Z,2.73
2018-08-30T23:46:45.859Z,2.93
2018-08-30T23:49:14.285Z,2.67
2018-08-30T23:51:42.678Z,3.03
2018-08-30T23:54:11.082Z,3.50
2018-08-30T23:56:39.525Z,3.37
2018-08-30T23:59:19.050Z,4.27
